Time;durP1;ratioP1;P1;durP2;ratioP2;P2;SDS_P1;SDS_P2;PMS_P1;PMS_P2;Temp;Humidity;BMP_temperature;BMP_pressure;BME280_temperature;BME280_humidity;BME280_pressure;Samples;Min_cycle;Max_cycle;Signal;HPM_P1;HPM_P2
2021/05/12 00:00:20;;;;;;;2.72;1.30;;;13.00;99.90;;;;;;5116193;28;20086;-76
2021/05/12 00:02:47;;;;;;;2.85;1.10;;;13.00;99.90;;;;;;5118922;28;20040;-76
2021/05/12 00:05:15;;;;;;;2.83;1.40;;;13.00;99.90;;;;;;5125601;28;20063;-77
2021/05/12 00:07:42;;;;;;;2.55;1.30;;;13.00;99.90;;;;;;5084296;28;20066;-79
2021/05/12 00:10:12;;;;;;;2.83;1.50;;;13.00;99.90;;;;;;5115629;28;20143;-78
2021/05/12 00:12:39;;;;;;;3.55;1.30;;;13.00;99.90;;;;;;5114545;28;20083;-79
2021/05/12 00:15:10;;;;;;;3.28;1.42;;;13.00;99.90;;;;;;5114967;28;20078;-78
2021/05/12 00:17:39;;;;;;;3.28;1.50;;;13.00;99.90;;;;;;5079984;28;20397;-78
2021/05/12 00:20:08;;;;;;;2.88;1.25;;;13.00;99.90;;;;;;5114346;28;20391;-78
2021/05/12 00:22:42;;;;;;;2.70;1.30;;;13.00;99.90;;;;;;5096536;28;20401;-78
2021/05/12 00:25:11;;;;;;;2.85;1.27;;;13.00;99.90;;;;;;5114961;28;20500;-78
2021/05/12 00:27:38;;;;;;;2.42;1.20;;;12.90;99.90;;;;;;5115199;28;20044;-78
2021/05/12 00:30:07;;;;;;;3.08;1.48;;;12.90;99.90;;;;;;5115787;28;20040;-77
2021/05/12 00:32:33;;;;;;;4.43;1.20;;;12.90;99.90;;;;;;5121397;28;20083;-78
2021/05/12 00:35:01;;;;;;;3.72;1.70;;;12.90;99.90;;;;;;5124966;28;20054;-78
2021/05/12 00:37:28;;;;;;;2.83;1.33;;;12.90;99.90;;;;;;5123431;28;20043;-81
2021/05/12 00:39:55;;;;;;;2.75;1.30;;;12.90;99.90;;;;;;5114902;28;20142;-79
2021/05/12 00:42:22;;;;;;;2.70;1.40;;;12.80;99.90;;;;;;5094346;28;20131;-78
2021/05/12 00:44:48;;;;;;;2.88;1.50;;;12.90;99.90;;;;;;5106475;28;20155;-79
2021/05/12 00:47:15;;;;;;;3.30;1.42;;;12.90;99.90;;;;;;5114219;28;20126;-79
2021/05/12 00:49:41;;;;;;;3.45;1.60;;;12.90;99.90;;;;;;5079220;28;20089;-79
2021/05/12 00:52:09;;;;;;;2.97;1.60;;;12.80;99.90;;;;;;5114536;28;20079;-79
2021/05/12 00:54:36;;;;;;;2.83;1.50;;;12.80;99.90;;;;;;5114975;28;20134;-79
2021/05/12 00:57:03;;;;;;;2.85;1.50;;;12.90;99.90;;;;;;5116412;28;20146;-79
2021/05/12 00:59:33;;;;;;;3.58;1.40;;;12.90;99.90;;;;;;5114511;28;20378;-79
2021/05/12 01:02:00;;;;;;;3.45;1.50;;;12.80;99.90;;;;;;5096583;28;20424;-79
2021/05/12 01:04:27;;;;;;;2.75;1.48;;;12.80;99.90;;;;;;5095781;28;20110;-79
2021/05/12 01:06:54;;;;;;;3.10;1.48;;;12.80;99.90;;;;;;5105888;28;20071;-78
2021/05/12 01:09:22;;;;;;;3.78;1.52;;;12.80;99.90;;;;;;5079784;28;20094;-78
2021/05/12 01:11:49;;;;;;;2.67;1.40;;;12.80;99.90;;;;;;5100470;28;20077;-77
2021/05/12 01:14:16;;;;;;;2.55;1.20;;;12.80;99.90;;;;;;5124663;28;20039;-78
2021/05/12 01:16:43;;;;;;;2.30;1.10;;;12.80;99.90;;;;;;5120007;28;20094;-78
2021/05/12 01:19:10;;;;;;;3.13;1.13;;;12.80;99.90;;;;;;5113959;28;20405;-77
2021/05/12 01:21:37;;;;;;;2.67;1.10;;;12.80;99.90;;;;;;5114212;28;20083;-78
2021/05/12 01:24:05;;;;;;;2.75;1.20;;;12.80;99.90;;;;;;5113672;28;20089;-78
2021/05/12 01:26:32;;;;;;;2.47;1.02;;;12.80;99.90;;;;;;5113883;28;20501;-77
2021/05/12 01:28:59;;;;;;;3.75;1.30;;;12.80;99.90;;;;;;5113723;28;20083;-77
2021/05/12 01:31:33;;;;;;;3.00;1.20;;;12.80;99.90;;;;;;5114027;28;20468;-77
2021/05/12 01:34:01;;;;;;;2.28;1.10;;;12.60;99.90;;;;;;5113491;28;20130;-77
2021/05/12 01:36:28;;;;;;;1.98;1.10;;;12.80;99.90;;;;;;5114301;28;20263;-78
2021/05/12 01:38:56;;;;;;;2.85;1.30;;;12.80;99.90;;;;;;5113877;28;20075;-80
2021/05/12 01:41:25;;;;;;;2.50;1.10;;;12.70;99.90;;;;;;5113986;28;20130;-78
2021/05/12 01:43:52;;;;;;;2.95;1.10;;;12.70;99.90;;;;;;5110038;28;20465;-78
2021/05/12 01:46:19;;;;;;;2.92;1.00;;;12.70;99.90;;;;;;5111611;28;20090;-78
2021/05/12 01:48:46;;;;;;;3.10;1.10;;;12.70;99.90;;;;;;5111060;28;20083;-78
2021/05/12 01:51:15;;;;;;;2.50;1.00;;;12.70;99.90;;;;;;5111919;28;20435;-77
2021/05/12 01:53:43;;;;;;;1.98;0.93;;;12.70;99.90;;;;;;5111789;28;20090;-77
2021/05/12 01:56:11;;;;;;;2.40;1.10;;;12.50;99.90;;;;;;5113756;28;20130;-76
2021/05/12 01:58:38;;;;;;;2.08;0.98;;;12.70;99.90;;;;;;5120483;28;20075;-77
2021/05/12 02:01:05;;;;;;;2.40;1.10;;;12.70;99.90;;;;;;5120957;28;20071;-77
2021/05/12 02:03:32;;;;;;;1.95;1.00;;;12.70;99.90;;;;;;5112423;28;20098;-77
2021/05/12 02:05:59;;;;;;;2.50;1.17;;;12.70;99.90;;;;;;5111647;28;20134;-78
2021/05/12 02:08:28;;;;;;;2.78;0.90;;;12.70;99.90;;;;;;5112163;28;20113;-76
2021/05/12 02:10:57;;;;;;;2.22;1.00;;;12.80;99.90;;;;;;5111395;28;20087;-75
2021/05/12 02:13:26;;;;;;;2.20;0.93;;;12.80;99.90;;;;;;5111180;28;20691;-76
2021/05/12 02:15:53;;;;;;;4.40;1.00;;;12.80;99.90;;;;;;5110777;28;20047;-75
2021/05/12 02:18:21;;;;;;;2.22;0.93;;;12.70;99.90;;;;;;5076281;28;20047;-78
2021/05/12 02:20:48;;;;;;;1.80;0.80;;;12.80;99.90;;;;;;5110683;28;20130;-75
2021/05/12 02:23:17;;;;;;;2.35;0.90;;;12.70;99.90;;;;;;5111045;28;20075;-79
2021/05/12 02:25:44;;;;;;;2.03;0.85;;;12.70;99.90;;;;;;5092924;28;20043;-78
2021/05/12 02:28:12;;;;;;;1.92;0.80;;;12.60;99.90;;;;;;5095188;28;20584;-78
2021/05/12 02:30:40;;;;;;;2.00;0.90;;;12.60;99.90;;;;;;5094314;28;20128;-76
2021/05/12 02:33:08;;;;;;;1.60;0.80;;;12.50;99.90;;;;;;5121224;28;20046;-78
2021/05/12 02:35:36;;;;;;;1.75;0.77;;;12.60;99.90;;;;;;5110728;28;20071;-78
2021/05/12 02:38:04;;;;;;;3.05;0.98;;;12.60;99.90;;;;;;5093229;28;20130;-80
2021/05/12 02:40:31;;;;;;;2.95;0.90;;;12.60;99.90;;;;;;5093692;28;20101;-79
2021/05/12 02:43:00;;;;;;;1.42;0.70;;;12.60;99.90;;;;;;5114586;28;20126;-79
2021/05/12 02:45:27;;;;;;;2.78;0.85;;;12.60;99.90;;;;;;5114687;28;20571;-79
2021/05/12 02:47:58;;;;;;;1.50;0.80;;;12.60;99.90;;;;;;5125594;28;20067;-78
2021/05/12 02:50:28;;;;;;;1.70;0.80;;;12.60;99.90;;;;;;5107918;28;20104;-78
2021/05/12 02:52:55;;;;;;;1.83;0.70;;;12.60;99.90;;;;;;5124975;28;20083;-76
2021/05/12 02:55:23;;;;;;;2.55;0.82;;;12.60;99.90;;;;;;5121041;28;20416;-79
2021/05/12 02:57:49;;;;;;;1.17;0.55;;;12.60;99.90;;;;;;5114887;28;20089;-79
2021/05/12 03:00:19;;;;;;;2.50;0.90;;;12.60;99.90;;;;;;5114930;28;20067;-79
2021/05/12 03:02:46;;;;;;;2.28;0.73;;;12.50;99.90;;;;;;5115013;28;20130;-78
2021/05/12 03:05:16;;;;;;;2.28;0.85;;;12.50;99.90;;;;;;5118640;28;20079;-79
2021/05/12 03:07:43;;;;;;;1.73;0.80;;;12.60;99.90;;;;;;5121253;28;20484;-78
2021/05/12 03:10:14;;;;;;;1.50;0.70;;;12.50;99.90;;;;;;5116560;28;20151;-78
2021/05/12 03:12:41;;;;;;;2.00;0.70;;;12.50;99.90;;;;;;5115513;28;20083;-78
2021/05/12 03:15:12;;;;;;;2.25;0.90;;;12.50;99.90;;;;;;5114437;28;20079;-78
2021/05/12 03:17:39;;;;;;;1.45;0.70;;;12.50;99.90;;;;;;5114507;28;20131;-77
2021/05/12 03:20:08;;;;;;;4.10;0.90;;;12.60;99.90;;;;;;5114469;28;20442;-78
2021/05/12 03:22:37;;;;;;;3.03;0.95;;;12.50;99.90;;;;;;5113986;28;20054;-79
2021/05/12 03:25:05;;;;;;;2.10;0.70;;;12.50;99.90;;;;;;5114183;28;20083;-79
2021/05/12 03:27:32;;;;;;;2.03;0.80;;;12.50;99.90;;;;;;5113843;28;20493;-78
2021/05/12 03:29:58;;;;;;;2.78;1.00;;;12.50;99.90;;;;;;5114535;28;20159;-76
2021/05/12 03:32:25;;;;;;;2.08;0.77;;;12.50;99.90;;;;;;5115198;28;20108;-78
2021/05/12 03:34:52;;;;;;;3.15;0.80;;;12.50;99.90;;;;;;5122144;28;20083;-78
2021/05/12 03:37:18;;;;;;;2.22;0.80;;;12.50;99.90;;;;;;5117263;28;20477;-79
2021/05/12 03:39:46;;;;;;;1.88;0.70;;;12.50;99.90;;;;;;5113558;28;20134;-78
2021/05/12 03:42:12;;;;;;;2.78;0.60;;;12.50;99.90;;;;;;5102508;28;20084;-78
2021/05/12 03:44:39;;;;;;;2.20;0.75;;;12.50;99.90;;;;;;5097118;28;20082;-78
2021/05/12 03:47:06;;;;;;;1.63;0.60;;;12.50;99.90;;;;;;5093982;28;20320;-77
2021/05/12 03:49:32;;;;;;;2.58;0.70;;;12.50;99.90;;;;;;5101782;28;20047;-77
2021/05/12 03:51:59;;;;;;;2.60;0.80;;;12.50;99.90;;;;;;5115951;28;20132;-77
2021/05/12 03:54:26;;;;;;;1.85;0.77;;;12.50;99.90;;;;;;5116973;28;20041;-78
2021/05/12 03:56:54;;;;;;;2.17;0.80;;;12.50;99.90;;;;;;5121908;28;20048;-77
2021/05/12 03:59:21;;;;;;;1.63;0.77;;;12.50;99.90;;;;;;5113242;28;20102;-77
2021/05/12 04:01:48;;;;;;;2.35;0.90;;;12.50;99.90;;;;;;5114820;28;20083;-77
2021/05/12 04:04:16;;;;;;;2.78;1.10;;;12.50;99.90;;;;;;5115825;28;20135;-79
2021/05/12 04:06:44;;;;;;;2.72;1.10;;;12.50;99.90;;;;;;5115969;28;20128;-78
2021/05/12 04:09:12;;;;;;;2.88;1.10;;;12.40;99.90;;;;;;5115804;28;20047;-78
2021/05/12 04:11:38;;;;;;;1.98;0.90;;;12.40;99.90;;;;;;5116252;28;20079;-78
2021/05/12 04:14:06;;;;;;;2.42;1.02;;;12.40;99.90;;;;;;5116031;28;20454;-79
2021/05/12 04:16:33;;;;;;;4.43;1.33;;;12.40;99.90;;;;;;5116086;28;20120;-79
2021/05/12 04:19:03;;;;;;;3.90;1.30;;;12.40;99.90;;;;;;5115810;28;20254;-78
2021/05/12 04:21:29;;;;;;;3.95;1.10;;;12.30;99.90;;;;;;5115387;28;20047;-78
2021/05/12 04:23:56;;;;;;;2.80;1.10;;;12.30;99.90;;;;;;5115173;28;20079;-77
2021/05/12 04:26:22;;;;;;;2.60;1.13;;;12.30;99.90;;;;;;5097576;28;20122;-78
2021/05/12 04:28:49;;;;;;;4.63;1.30;;;12.30;99.90;;;;;;5115778;28;20074;-77
2021/05/12 04:31:17;;;;;;;4.18;1.30;;;12.30;99.90;;;;;;5115258;28;20075;-77
2021/05/12 04:33:43;;;;;;;2.42;1.00;;;12.10;99.90;;;;;;5116545;28;20130;-77
2021/05/12 04:36:10;;;;;;;3.25;1.20;;;12.30;99.90;;;;;;5117088;28;20545;-79
2021/05/12 04:38:36;;;;;;;2.90;1.10;;;12.30;99.90;;;;;;5116290;28;20508;-79
2021/05/12 04:41:03;;;;;;;2.25;0.95;;;12.20;99.90;;;;;;5116402;28;20089;-77
2021/05/12 04:43:30;;;;;;;3.00;1.02;;;12.20;99.90;;;;;;5116749;28;20087;-77
2021/05/12 04:45:56;;;;;;;2.97;1.10;;;12.20;99.90;;;;;;5115954;28;20123;-79
2021/05/12 04:48:24;;;;;;;4.05;1.30;;;12.20;99.90;;;;;;5115895;28;20079;-79
2021/05/12 04:50:51;;;;;;;3.95;1.20;;;12.20;99.90;;;;;;5118952;28;20086;-76
2021/05/12 04:53:17;;;;;;;2.83;1.02;;;12.10;99.90;;;;;;5117287;28;20389;-77
2021/05/12 04:55:44;;;;;;;2.88;0.95;;;12.20;99.90;;;;;;5124039;28;20050;-75
2021/05/12 04:58:10;;;;;;;3.17;1.00;;;12.20;99.90;;;;;;5118468;28;20094;-78
2021/05/12 05:00:37;;;;;;;2.50;1.00;;;12.20;99.90;;;;;;5115755;28;20083;-77
2021/05/12 05:03:06;;;;;;;2.00;1.00;;;12.20;99.90;;;;;;5116900;28;20476;-78
2021/05/12 05:05:34;;;;;;;2.78;1.00;;;12.30;99.90;;;;;;5118952;28;20044;-77
2021/05/12 05:08:00;;;;;;;3.35;1.00;;;12.30;99.90;;;;;;5114947;28;20606;-76
2021/05/12 05:10:27;;;;;;;3.45;1.17;;;12.20;99.90;;;;;;5114850;28;20453;-77
2021/05/12 05:12:54;;;;;;;3.30;1.00;;;12.30;99.90;;;;;;5115685;28;20109;-79
2021/05/12 05:15:20;;;;;;;2.97;1.10;;;12.20;99.90;;;;;;5115010;28;20055;-80
2021/05/12 05:17:50;;;;;;;3.17;1.20;;;12.30;99.90;;;;;;5118516;28;20501;-76
2021/05/12 05:20:17;;;;;;;3.13;1.20;;;12.30;99.90;;;;;;5124697;28;20055;-76
2021/05/12 05:22:45;;;;;;;2.20;1.10;;;12.30;99.90;;;;;;5122876;28;20051;-77
2021/05/12 05:25:12;;;;;;;2.40;1.02;;;12.20;99.90;;;;;;5121835;28;20071;-77
2021/05/12 05:27:39;;;;;;;3.85;1.30;;;12.30;99.90;;;;;;5122507;28;20071;-78
2021/05/12 05:30:08;;;;;;;3.13;1.15;;;12.30;99.90;;;;;;5122132;28;20054;-78
2021/05/12 05:32:34;;;;;;;2.63;1.30;;;12.30;99.90;;;;;;5116033;28;20109;-77
2021/05/12 05:35:01;;;;;;;3.10;1.25;;;12.30;99.90;;;;;;5121369;28;20047;-77
2021/05/12 05:37:27;;;;;;;3.90;1.55;;;12.30;99.90;;;;;;5115703;28;20079;-77
2021/05/12 05:39:55;;;;;;;3.30;1.30;;;12.40;99.90;;;;;;5120406;28;20083;-76
2021/05/12 05:42:22;;;;;;;3.30;1.60;;;12.30;99.90;;;;;;5121766;28;20130;-78
2021/05/12 05:44:49;;;;;;;4.55;1.70;;;12.20;99.90;;;;;;5120424;28;20067;-77
2021/05/12 05:47:15;;;;;;;2.85;1.40;;;12.30;99.90;;;;;;5116602;28;20055;-77
2021/05/12 05:49:42;;;;;;;3.40;1.33;;;12.30;99.90;;;;;;5118293;28;20051;-77
2021/05/12 05:52:09;;;;;;;3.65;1.40;;;12.30;99.90;;;;;;5117280;28;20079;-76
2021/05/12 05:54:35;;;;;;;2.88;1.42;;;12.40;99.90;;;;;;5115926;28;20043;-79
2021/05/12 05:57:05;;;;;;;2.90;1.40;;;12.40;99.90;;;;;;5124509;28;20047;-78
2021/05/12 05:59:32;;;;;;;2.72;1.20;;;12.30;99.90;;;;;;5119486;28;20405;-77
2021/05/12 06:01:58;;;;;;;3.97;1.40;;;12.30;99.90;;;;;;5116923;28;20087;-79
2021/05/12 06:04:25;;;;;;;2.15;1.00;;;12.30;99.90;;;;;;5116649;28;20039;-76
2021/05/12 06:06:54;;;;;;;5.30;1.58;;;12.30;99.90;;;;;;5116404;28;20055;-76
2021/05/12 06:09:21;;;;;;;2.85;1.10;;;12.30;99.90;;;;;;5116126;28;20051;-77
2021/05/12 06:11:47;;;;;;;2.65;1.00;;;12.30;99.90;;;;;;5114606;28;20074;-78
2021/05/12 06:14:15;;;;;;;2.50;0.90;;;12.30;99.90;;;;;;5114765;28;20126;-77
2021/05/12 06:16:42;;;;;;;1.45;0.65;;;12.20;99.90;;;;;;5118122;28;20047;-78
2021/05/12 06:19:09;;;;;;;2.15;0.63;;;12.20;99.90;;;;;;5117732;28;20290;-79
2021/05/12 06:21:35;;;;;;;2.22;0.70;;;12.20;99.90;;;;;;5117258;28;20185;-78
2021/05/12 06:24:02;;;;;;;2.67;0.80;;;12.10;99.90;;;;;;5117574;28;20048;-78
2021/05/12 06:26:28;;;;;;;1.15;0.43;;;12.00;99.90;;;;;;5117267;28;20130;-78
2021/05/12 06:28:55;;;;;;;1.75;0.60;;;12.00;99.90;;;;;;5117409;28;20125;-78
2021/05/12 06:31:23;;;;;;;1.77;0.70;;;11.90;99.90;;;;;;5118198;28;20067;-77
2021/05/12 06:33:49;;;;;;;2.35;0.60;;;11.90;99.90;;;;;;5117725;28;20044;-76
2021/05/12 06:36:16;;;;;;;1.48;0.57;;;11.90;99.90;;;;;;5117697;28;20123;-78
2021/05/12 06:38:43;;;;;;;1.80;0.55;;;11.80;99.90;;;;;;5117851;28;20047;-78
2021/05/12 06:41:10;;;;;;;2.45;0.50;;;11.80;99.90;;;;;;5118887;28;20059;-79
2021/05/12 06:43:37;;;;;;;2.25;0.70;;;11.80;99.90;;;;;;5117022;28;20079;-78
2021/05/12 06:46:03;;;;;;;1.67;0.70;;;11.80;99.90;;;;;;5117448;28;20101;-75
2021/05/12 06:48:31;;;;;;;1.42;0.45;;;11.80;99.90;;;;;;5116510;28;20492;-79
2021/05/12 06:50:57;;;;;;;1.90;0.60;;;11.80;99.90;;;;;;5117667;28;20461;-78
2021/05/12 06:53:29;;;;;;;2.88;0.82;;;11.70;99.90;;;;;;5117074;28;20126;-79
2021/05/12 06:55:56;;;;;;;3.22;0.70;;;11.80;99.90;;;;;;5116823;28;20075;-80
2021/05/12 06:58:23;;;;;;;1.33;0.60;;;11.60;99.90;;;;;;5117256;28;20079;-78
2021/05/12 07:00:51;;;;;;;1.75;0.65;;;11.80;99.90;;;;;;5116643;28;20079;-80
2021/05/12 07:03:19;;;;;;;1.70;0.60;;;11.80;99.90;;;;;;5116367;28;20553;-79
2021/05/12 07:05:46;;;;;;;1.50;0.60;;;11.80;99.90;;;;;;5116625;28;20063;-79
2021/05/12 07:08:13;;;;;;;1.42;0.65;;;11.70;99.90;;;;;;5117084;28;20537;-78
2021/05/12 07:10:39;;;;;;;2.00;0.77;;;11.70;99.90;;;;;;5116508;28;20118;-79
2021/05/12 07:13:06;;;;;;;2.38;0.88;;;11.80;99.90;;;;;;5116776;28;20129;-79
2021/05/12 07:15:33;;;;;;;2.42;0.70;;;11.60;99.90;;;;;;5116668;28;20127;-78
2021/05/12 07:17:59;;;;;;;2.63;0.95;;;11.80;99.90;;;;;;5123916;28;20071;-77
2021/05/12 07:20:26;;;;;;;2.85;0.70;;;11.80;99.90;;;;;;5123823;28;20497;-78
2021/05/12 07:23:02;;;;;;;1.73;0.77;;;11.80;99.90;;;;;;5117264;28;20075;-78
2021/05/12 07:25:29;;;;;;;2.00;0.60;;;11.80;99.90;;;;;;5116829;28;20047;-79
2021/05/12 07:27:56;;;;;;;1.48;0.60;;;11.80;99.90;;;;;;5116121;28;20063;-76
2021/05/12 07:30:22;;;;;;;2.58;0.60;;;11.80;99.90;;;;;;5116648;28;20071;-79
2021/05/12 07:32:49;;;;;;;2.65;0.80;;;11.90;99.90;;;;;;5116324;28;20485;-78
2021/05/12 07:35:16;;;;;;;2.15;0.60;;;12.00;99.90;;;;;;5116161;28;20123;-78
2021/05/12 07:37:42;;;;;;;2.38;0.75;;;12.00;99.90;;;;;;5116433;28;20118;-80
2021/05/12 07:40:12;;;;;;;2.72;0.80;;;11.90;99.90;;;;;;5116628;28;20079;-79
2021/05/12 07:42:41;;;;;;;2.35;0.73;;;11.90;99.90;;;;;;5116011;28;20405;-78
2021/05/12 07:45:10;;;;;;;1.95;0.75;;;11.90;99.90;;;;;;5117035;28;20132;-77
2021/05/12 07:47:37;;;;;;;2.03;0.90;;;11.90;99.90;;;;;;5126404;28;20055;-78
2021/05/12 07:50:05;;;;;;;2.80;0.98;;;11.80;99.90;;;;;;5126274;28;20067;-76
2021/05/12 07:52:31;;;;;;;2.63;1.02;;;11.90;99.90;;;;;;5125854;28;20075;-78
2021/05/12 07:54:58;;;;;;;2.25;0.90;;;12.00;99.90;;;;;;5121236;28;20500;-76
2021/05/12 07:57:25;;;;;;;2.47;0.98;;;11.90;99.90;;;;;;5115339;28;20094;-80
2021/05/12 07:59:52;;;;;;;2.85;1.08;;;11.90;99.90;;;;;;5126849;28;20066;-79
2021/05/12 08:02:18;;;;;;;2.58;0.90;;;11.90;99.90;;;;;;5117045;28;20138;-80
2021/05/12 08:04:45;;;;;;;3.22;0.95;;;11.90;99.90;;;;;;5116146;28;20078;-80
2021/05/12 08:07:11;;;;;;;2.95;0.93;;;11.90;99.90;;;;;;5115544;28;20071;-79
2021/05/12 08:09:38;;;;;;;3.13;1.25;;;11.90;99.90;;;;;;5115661;28;20090;-78
2021/05/12 08:12:06;;;;;;;3.67;1.13;;;11.90;99.90;;;;;;5115902;28;20135;-79
2021/05/12 08:14:34;;;;;;;2.90;1.10;;;12.00;99.90;;;;;;5115621;28;20128;-79
2021/05/12 08:17:01;;;;;;;2.20;0.90;;;12.00;99.90;;;;;;5116200;28;20079;-78
2021/05/12 08:19:27;;;;;;;1.63;0.80;;;12.00;99.90;;;;;;5115386;28;20113;-78
2021/05/12 08:21:54;;;;;;;3.20;1.00;;;12.10;99.90;;;;;;5114972;28;20079;-77
2021/05/12 08:24:22;;;;;;;3.05;1.00;;;12.10;99.90;;;;;;5115334;28;20086;-78
2021/05/12 08:26:48;;;;;;;1.98;0.90;;;12.20;99.90;;;;;;5115841;28;20051;-79
2021/05/12 08:29:16;;;;;;;3.35;0.90;;;12.20;99.90;;;;;;5115686;28;20449;-79
2021/05/12 08:31:46;;;;;;;3.58;1.17;;;12.30;99.90;;;;;;5115651;28;20078;-79
2021/05/12 08:34:12;;;;;;;2.83;1.17;;;12.30;99.90;;;;;;5114887;28;20121;-79
2021/05/12 08:36:39;;;;;;;2.63;1.00;;;12.30;99.90;;;;;;5114651;28;20075;-79
2021/05/12 08:39:08;;;;;;;3.90;1.00;;;12.40;99.90;;;;;;5115552;28;20096;-78
2021/05/12 08:41:35;;;;;;;2.70;1.02;;;12.40;99.90;;;;;;5124795;28;20493;-78
2021/05/12 08:44:05;;;;;;;2.28;1.00;;;12.40;99.90;;;;;;5125031;28;20043;-79
2021/05/12 08:46:32;;;;;;;2.00;1.00;;;12.50;99.90;;;;;;5117745;28;20411;-80
2021/05/12 08:49:01;;;;;;;3.38;1.00;;;12.50;99.90;;;;;;5114240;28;20087;-79
2021/05/12 08:51:27;;;;;;;1.80;0.90;;;12.50;99.90;;;;;;5114230;28;20075;-80
2021/05/12 08:53:57;;;;;;;3.05;1.00;;;12.60;99.90;;;;;;5115240;28;20125;-80
2021/05/12 08:56:24;;;;;;;2.58;0.98;;;12.60;99.90;;;;;;5114777;28;20249;-78
2021/05/12 08:58:50;;;;;;;2.58;0.90;;;12.70;99.90;;;;;;5115012;28;20074;-80
2021/05/12 09:01:18;;;;;;;2.38;1.02;;;12.70;99.90;;;;;;5114690;28;20082;-78
2021/05/12 09:03:45;;;;;;;2.95;1.08;;;12.70;99.90;;;;;;5096063;28;20466;-78
2021/05/12 09:06:13;;;;;;;3.35;0.90;;;12.60;99.90;;;;;;5114107;28;20497;-80
2021/05/12 09:08:41;;;;;;;4.75;1.25;;;12.80;99.90;;;;;;5114452;28;20082;-79
2021/05/12 09:11:08;;;;;;;3.92;1.33;;;12.80;99.90;;;;;;5096671;28;20039;-78
2021/05/12 09:13:38;;;;;;;2.70;0.98;;;12.80;99.90;;;;;;5114726;28;20449;-79
2021/05/12 09:16:19;;;;;;;3.10;1.25;;;12.80;99.90;;;;;;5114769;28;20075;-79
2021/05/12 09:18:46;;;;;;;2.47;1.10;;;12.90;99.90;;;;;;5114210;28;20054;-79
2021/05/12 09:21:14;;;;;;;5.38;1.00;;;12.90;99.90;;;;;;5113743;28;20505;-78
2021/05/12 09:23:43;;;;;;;2.88;1.00;;;12.90;99.90;;;;;;5114440;28;20458;-79
2021/05/12 09:26:15;;;;;;;3.25;1.10;;;13.00;99.90;;;;;;5114357;28;20083;-79
2021/05/12 09:28:43;;;;;;;2.90;1.15;;;13.00;99.90;;;;;;5113735;28;20170;-78
2021/05/12 09:31:14;;;;;;;2.97;1.27;;;13.00;99.90;;;;;;5114301;28;20067;-78
2021/05/12 09:33:44;;;;;;;3.63;1.20;;;13.00;99.90;;;;;;5095920;28;20055;-77
2021/05/12 09:36:26;;;;;;;3.47;1.08;;;13.00;99.90;;;;;;5113698;28;20047;-77
2021/05/12 09:38:54;;;;;;;5.63;1.30;;;13.10;99.90;;;;;;5110589;28;20043;-79
2021/05/12 09:41:32;;;;;;;4.35;1.33;;;13.00;99.90;;;;;;5112579;28;20040;-76
2021/05/12 09:43:59;;;;;;;3.50;1.35;;;13.10;99.90;;;;;;5113042;28;20106;-78
2021/05/12 09:46:33;;;;;;;2.95;1.30;;;13.00;99.90;;;;;;5113502;28;20450;-75
2021/05/12 09:49:15;;;;;;;3.17;1.38;;;13.20;99.90;;;;;;5112867;28;20074;-76
2021/05/12 09:51:47;;;;;;;3.90;1.20;;;13.10;99.90;;;;;;5113417;28;20097;-75
2021/05/12 09:54:18;;;;;;;3.97;1.38;;;13.10;99.90;;;;;;5112911;28;20077;-78
2021/05/12 09:56:49;;;;;;;3.33;1.30;;;13.10;99.90;;;;;;5113721;28;20126;-78
2021/05/12 09:59:19;;;;;;;4.20;1.48;;;13.20;99.90;;;;;;5095388;28;20047;-76
2021/05/12 10:01:50;;;;;;;4.30;1.40;;;13.10;99.90;;;;;;5113662;28;20058;-78
2021/05/12 10:04:32;;;;;;;3.20;1.42;;;13.20;99.90;;;;;;5096443;28;20059;-78
2021/05/12 10:07:02;;;;;;;3.53;1.58;;;13.30;99.90;;;;;;5095047;28;20130;-79
2021/05/12 10:09:30;;;;;;;5.45;1.73;;;13.30;99.90;;;;;;5112599;28;20505;-77
2021/05/12 10:12:17;;;;;;;3.75;1.60;;;13.30;99.90;;;;;;5112836;28;20044;-77
2021/05/12 10:14:47;;;;;;;4.50;1.60;;;13.20;99.90;;;;;;5110251;28;20039;-78
2021/05/12 10:17:15;;;;;;;3.17;1.42;;;13.20;99.90;;;;;;5112106;28;20078;-78
2021/05/12 10:19:43;;;;;;;4.90;1.65;;;13.20;99.90;;;;;;5095524;28;20501;-77
2021/05/12 10:22:12;;;;;;;5.60;2.08;;;13.20;99.90;;;;;;5113314;28;20082;-80
2021/05/12 10:24:41;;;;;;;5.97;2.17;;;13.20;99.90;;;;;;5112682;28;20044;-77
2021/05/12 10:27:12;;;;;;;4.57;2.15;;;13.10;99.90;;;;;;5111691;28;20544;-78
2021/05/12 10:29:41;;;;;;;3.88;1.42;;;13.20;99.90;;;;;;5112644;28;20051;-79
2021/05/12 10:32:22;;;;;;;3.70;1.50;;;13.20;99.90;;;;;;5112871;28;20533;-77
2021/05/12 10:34:59;;;;;;;3.08;1.42;;;13.20;99.90;;;;;;5112628;28;20048;-79
2021/05/12 10:37:29;;;;;;;11.57;6.05;;;13.20;99.90;;;;;;5111922;28;20153;-79
2021/05/12 10:40:00;;;;;;;10.00;4.63;;;13.30;99.90;;;;;;5112185;28;20135;-79
2021/05/12 10:43:02;;;;;;;6.20;2.90;;;13.30;99.90;;;;;;5111650;28;20054;-79
2021/05/12 10:46:05;;;;;;;4.68;2.67;;;13.30;99.90;;;;;;5093098;28;20485;-77
2021/05/12 10:48:40;;;;;;;4.35;1.80;;;13.40;99.90;;;;;;5101447;28;20488;-77
2021/05/12 10:51:30;;;;;;;4.75;1.70;;;13.40;99.90;;;;;;5109773;28;20075;-78
2021/05/12 10:54:01;;;;;;;4.40;1.60;;;13.50;99.90;;;;;;5096672;28;20370;-78
2021/05/12 10:56:35;;;;;;;3.78;1.50;;;13.50;99.90;;;;;;5112825;28;20051;-77
2021/05/12 10:59:04;;;;;;;3.72;1.60;;;13.50;99.90;;;;;;5111096;28;20138;-79
2021/05/12 11:01:35;;;;;;;4.07;1.50;;;13.50;99.90;;;;;;5112525;28;20043;-78
2021/05/12 11:04:08;;;;;;;3.55;1.40;;;13.60;99.90;;;;;;5106557;28;20450;-78
2021/05/12 11:07:08;;;;;;;3.85;1.48;;;13.60;99.90;;;;;;5113797;28;20079;-78
2021/05/12 11:09:50;;;;;;;3.70;1.30;;;13.50;99.90;;;;;;5022609;28;20045;-78
2021/05/12 11:12:24;;;;;;;3.50;1.60;;;13.60;99.90;;;;;;5033094;28;20079;-77
2021/05/12 11:15:05;;;;;;;6.30;1.98;;;13.60;99.90;;;;;;5071238;28;20052;-77
2021/05/12 11:17:53;;;;;;;3.42;1.50;;;13.70;99.90;;;;;;5095860;28;20051;-77
2021/05/12 11:20:25;;;;;;;4.28;1.70;;;13.70;99.90;;;;;;5096169;28;20486;-78
2021/05/12 11:22:57;;;;;;;4.03;1.73;;;13.70;99.90;;;;;;5095971;28;20079;-78
2021/05/12 11:25:37;;;;;;;4.53;1.70;;;13.70;99.90;;;;;;5096468;28;20097;-76
2021/05/12 11:33:52;;;;;;;3.45;1.50;;;13.80;99.90;;;;;;5096813;28;20055;-77
2021/05/12 11:36:22;;;;;;;4.65;1.50;;;13.90;99.90;;;;;;5078228;28;20089;-77
2021/05/12 11:38:51;;;;;;;3.05;1.30;;;14.00;99.90;;;;;;5095729;28;20090;-77
2021/05/12 11:41:21;;;;;;;3.80;1.40;;;14.00;99.90;;;;;;5095790;28;20056;-77
2021/05/12 11:43:52;;;;;;;5.03;1.80;;;14.00;99.90;;;;;;5095538;28;20391;-78
2021/05/12 11:46:21;;;;;;;3.55;1.58;;;14.00;99.90;;;;;;5095917;28;20083;-77
2021/05/12 11:48:50;;;;;;;3.97;1.67;;;14.00;99.90;;;;;;5077895;28;20055;-77
2021/05/12 11:51:28;;;;;;;4.85;1.40;;;14.10;99.90;;;;;;5095601;28;20076;-78
2021/05/12 11:53:55;;;;;;;9.40;1.83;;;14.10;99.70;;;;;;5095179;28;20083;-78
2021/05/12 11:56:24;;;;;;;4.00;1.80;;;14.10;99.60;;;;;;5096067;28;20133;-78
2021/05/12 11:58:54;;;;;;;5.28;1.50;;;14.10;99.40;;;;;;5095806;28;20072;-78
2021/05/12 12:01:21;;;;;;;3.30;1.27;;;14.10;99.40;;;;;;5095705;28;20535;-78
2021/05/12 12:04:05;;;;;;;4.35;1.52;;;14.20;99.50;;;;;;5095514;28;20052;-78
2021/05/12 12:06:38;;;;;;;6.18;1.60;;;14.20;99.30;;;;;;5095373;28;20055;-77
2021/05/12 12:09:05;;;;;;;3.05;1.35;;;14.30;99.30;;;;;;5095286;28;20048;-77
2021/05/12 12:11:34;;;;;;;3.42;1.40;;;14.30;99.30;;;;;;5095413;28;20061;-77
2021/05/12 12:14:02;;;;;;;3.45;1.70;;;14.40;99.40;;;;;;5094991;28;20052;-76
2021/05/12 12:16:29;;;;;;;4.35;1.70;;;14.40;99.50;;;;;;5095258;28;20126;-78
2021/05/12 12:18:56;;;;;;;4.75;1.60;;;14.50;99.20;;;;;;5095425;28;20155;-78
2021/05/12 12:21:29;;;;;;;3.63;1.50;;;14.50;99.30;;;;;;5095248;28;20134;-78
2021/05/12 12:23:56;;;;;;;4.03;1.88;;;14.70;99.50;;;;;;5094748;28;20415;-78
2021/05/12 12:26:25;;;;;;;4.07;1.50;;;14.70;99.30;;;;;;5095123;28;20048;-78
2021/05/12 12:28:59;;;;;;;4.47;1.40;;;14.80;99.20;;;;;;5096694;28;20139;-78
2021/05/12 12:31:29;;;;;;;4.82;1.55;;;15.00;99.10;;;;;;5094644;28;20481;-78
2021/05/12 12:34:19;;;;;;;3.78;1.70;;;15.00;98.40;;;;;;5094999;28;20052;-78
2021/05/12 12:36:57;;;;;;;3.85;1.25;;;15.20;97.80;;;;;;5094969;28;20048;-77
2021/05/12 12:39:42;;;;;;;5.43;1.67;;;15.20;97.80;;;;;;5094922;28;20052;-77
2021/05/12 12:42:10;;;;;;;3.97;1.58;;;15.30;98.00;;;;;;5076538;28;20044;-76
2021/05/12 12:44:40;;;;;;;4.50;1.77;;;15.30;97.30;;;;;;5094089;28;20097;-78
2021/05/12 12:47:14;;;;;;;3.65;1.58;;;15.40;97.30;;;;;;5094768;28;20143;-77
2021/05/12 12:49:47;;;;;;;4.28;1.88;;;15.50;97.30;;;;;;5094614;28;20055;-77
2021/05/12 12:52:17;;;;;;;4.18;1.85;;;15.50;97.20;;;;;;5077406;28;20059;-78
2021/05/12 12:54:52;;;;;;;3.78;1.60;;;15.60;96.90;;;;;;5110143;28;20097;-76
2021/05/12 12:57:22;;;;;;;5.13;1.73;;;15.60;96.60;;;;;;5094777;28;20040;-76
2021/05/12 13:00:19;;;;;;;4.97;1.88;;;15.60;96.30;;;;;;5094228;28;20044;-78
2021/05/12 13:03:02;;;;;;;5.82;1.90;;;15.60;96.30;;;;;;5093756;28;20054;-78